createdAt,value
2019-05-25T00:01:37.972Z,20.43
2019-05-25T00:04:09.813Z,25.53
2019-05-25T00:06:41.562Z,27.37
2019-05-25T00:09:13.306Z,27.67
2019-05-25T00:11:46.820Z,28.83
2019-05-25T00:14:19.240Z,27.30
2019-05-25T00:16:51.086Z,22.00
2019-05-25T00:19:22.827Z,28.43
2019-05-25T00:21:54.570Z,29.97
2019-05-25T00:24:26.307Z,25.10
2019-05-25T00:26:58.049Z,25.90
2019-05-25T00:29:29.794Z,23.93
2019-05-25T00:32:01.608Z,26.37
2019-05-25T00:34:33.318Z,24.00
2019-05-25T00:37:05.434Z,26.17
2019-05-25T00:39:37.143Z,28.60
2019-05-25T00:42:08.883Z,25.13
2019-05-25T00:44:40.731Z,27.03
2019-05-25T00:47:12.474Z,27.63
2019-05-25T00:49:44.213Z,23.93
2019-05-25T00:52:15.953Z,24.57
2019-05-25T00:54:49.332Z,23.77
2019-05-25T00:57:20.977Z,27.43
2019-05-25T00:59:52.950Z,30.07
2019-05-25T01:02:24.792Z,29.03
2019-05-25T01:04:56.643Z,27.20
2019-05-25T01:07:28.387Z,25.90
2019-05-25T01:10:00.134Z,28.73
2019-05-25T01:12:31.863Z,23.13
2019-05-25T01:15:06.610Z,24.67
2019-05-25T01:17:39.875Z,26.23
2019-05-25T01:20:14.357Z,23.47
2019-05-25T01:22:47.607Z,27.03
2019-05-25T01:25:19.519Z,27.10
2019-05-25T01:27:52.247Z,30.57
2019-05-25T01:30:24.323Z,23.47
2019-05-25T01:32:55.869Z,24.57
2019-05-25T01:35:28.846Z,26.27
2019-05-25T01:38:02.094Z,26.07
2019-05-25T01:40:34.136Z,22.53
2019-05-25T01:43:07.124Z,21.90
2019-05-25T01:45:38.866Z,24.50
2019-05-25T01:48:11.853Z,25.57
2019-05-25T01:50:43.589Z,20.83
2019-05-25T01:53:16.570Z,20.30
2019-05-25T01:55:49.545Z,24.50
2019-05-25T01:58:21.394Z,22.10
2019-05-25T02:00:53.133Z,21.30
2019-05-25T02:03:25.059Z,22.57
2019-05-25T02:05:56.909Z,23.30
2019-05-25T02:08:28.668Z,23.40
2019-05-25T02:11:00.401Z,23.10
2019-05-25T02:13:32.248Z,25.93
2019-05-25T02:16:04.105Z,30.23
2019-05-25T02:18:36.018Z,26.93
2019-05-25T02:21:07.811Z,24.57
2019-05-25T02:23:39.586Z,23.90
2019-05-25T02:26:11.330Z,23.77
2019-05-25T02:28:43.365Z,21.80
2019-05-25T02:31:15.111Z,24.30
2019-05-25T02:33:46.856Z,25.90
2019-05-25T02:36:20.842Z,27.00
2019-05-25T02:38:53.737Z,23.07
2019-05-25T02:41:26.155Z,24.07
2019-05-25T02:43:57.896Z,24.97
2019-05-25T02:46:30.016Z,22.53
2019-05-25T02:49:01.758Z,21.87
2019-05-25T02:51:33.507Z,20.47
2019-05-25T02:54:05.504Z,18.50
2019-05-25T02:56:38.217Z,18.13
2019-05-25T02:59:09.951Z,26.50
2019-05-25T03:01:41.805Z,17.90
2019-05-25T03:04:15.007Z,18.13
2019-05-25T03:06:47.119Z,21.30
2019-05-25T03:09:21.535Z,18.33
2019-05-25T03:11:54.009Z,21.00
2019-05-25T03:14:25.747Z,18.40
2019-05-25T03:16:58.457Z,16.33
2019-05-25T03:19:30.190Z,17.80
2019-05-25T03:22:01.933Z,17.13
2019-05-25T03:24:33.781Z,19.87
2019-05-25T03:27:06.386Z,15.63
2019-05-25T03:29:38.121Z,14.73
2019-05-25T03:32:10.012Z,27.33
2019-05-25T03:34:41.999Z,15.87
2019-05-25T03:37:13.713Z,16.87
2019-05-25T03:39:45.556Z,17.10
2019-05-25T03:42:17.350Z,21.27
2019-05-25T03:44:49.665Z,18.50
2019-05-25T03:47:21.409Z,16.47
2019-05-25T03:49:53.605Z,19.90
2019-05-25T03:52:25.608Z,17.30
2019-05-25T03:54:57.250Z,17.87
2019-05-25T03:57:29.086Z,16.97
2019-05-25T04:00:00.829Z,22.00
2019-05-25T04:02:32.562Z,20.57
2019-05-25T04:05:05.734Z,15.07
2019-05-25T04:07:37.368Z,15.93
2019-05-25T04:10:09.782Z,19.43
2019-05-25T04:12:41.429Z,16.10
2019-05-25T04:15:13.340Z,15.20
2019-05-25T04:17:46.900Z,13.67
2019-05-25T04:20:18.613Z,14.73
2019-05-25T04:22:50.647Z,14.63
2019-05-25T04:25:23.665Z,16.47
2019-05-25T04:27:55.396Z,13.30
2019-05-25T04:30:27.222Z,14.57
2019-05-25T04:32:58.842Z,17.00
2019-05-25T04:35:30.686Z,19.27
2019-05-25T04:38:02.737Z,14.83
2019-05-25T04:40:34.500Z,17.50
2019-05-25T04:43:06.840Z,15.10
2019-05-25T04:45:38.584Z,17.50
2019-05-25T04:48:10.326Z,12.50
2019-05-25T04:50:43.029Z,16.40
2019-05-25T04:53:14.834Z,12.13
2019-05-25T04:55:46.877Z,14.73
2019-05-25T04:58:18.626Z,12.33
2019-05-25T05:00:50.360Z,13.40
2019-05-25T05:03:22.114Z,12.13
2019-05-25T05:05:53.936Z,12.73
2019-05-25T05:08:25.690Z,10.77
2019-05-25T05:10:57.428Z,11.97
2019-05-25T05:13:29.466Z,8.83
2019-05-25T05:16:01.313Z,11.57
2019-05-25T05:18:33.065Z,10.97
2019-05-25T05:21:04.822Z,9.97
2019-05-25T05:23:36.565Z,17.77
2019-05-25T05:26:08.635Z,12.70
2019-05-25T05:28:40.380Z,13.83
2019-05-25T05:31:23.277Z,13.90
2019-05-25T05:33:45.687Z,14.60
2019-05-25T05:36:19.260Z,11.17
2019-05-25T05:38:52.241Z,10.40
2019-05-25T05:41:25.208Z,9.07
2019-05-25T05:44:00.633Z,14.30
2019-05-25T05:46:35.430Z,9.37
2019-05-25T05:49:10.481Z,9.77
2019-05-25T05:51:44.104Z,6.73
2019-05-25T05:54:17.872Z,5.97
2019-05-25T05:56:50.259Z,7.43
2019-05-25T05:59:21.895Z,8.97
2019-05-25T06:01:53.830Z,11.10
2019-05-25T06:04:25.566Z,7.53
2019-05-25T06:06:57.292Z,5.27
2019-05-25T06:09:29.160Z,9.33
2019-05-25T06:12:00.784Z,7.07
2019-05-25T06:14:32.632Z,6.90
2019-05-25T06:17:04.547Z,5.90
2019-05-25T06:19:40.742Z,5.17
2019-05-25T06:22:15.686Z,8.27
2019-05-25T06:24:47.329Z,7.73
2019-05-25T06:27:27.338Z,8.53
2019-05-25T06:29:52.650Z,5.80
2019-05-25T06:32:24.390Z,3.43
2019-05-25T06:34:56.211Z,5.67
2019-05-25T06:37:28.361Z,9.83
2019-05-25T06:40:02.614Z,5.70
2019-05-25T06:42:39.438Z,6.50
2019-05-25T06:45:13.488Z,4.93
2019-05-25T06:47:45.619Z,6.63
2019-05-25T06:50:20.790Z,7.23
2019-05-25T06:52:52.639Z,6.07
2019-05-25T06:55:24.366Z,6.47
2019-05-25T06:57:56.095Z,5.10
2019-05-25T07:00:28.003Z,6.90
2019-05-25T07:03:00.103Z,7.53
2019-05-25T07:05:32.925Z,8.70
2019-05-25T07:08:05.031Z,7.40
2019-05-25T07:10:36.768Z,6.63
2019-05-25T07:13:08.502Z,9.00
2019-05-25T07:15:40.230Z,6.73
2019-05-25T07:18:12.060Z,5.90
2019-05-25T07:20:43.785Z,6.57
2019-05-25T07:23:15.514Z,8.13
2019-05-25T07:25:47.347Z,8.53
2019-05-25T07:28:19.078Z,7.30
2019-05-25T07:30:50.821Z,4.67
2019-05-25T07:33:22.562Z,7.67
2019-05-25T07:35:54.296Z,8.87
2019-05-25T07:38:26.259Z,8.93
2019-05-25T07:40:57.891Z,6.93
2019-05-25T07:43:29.640Z,7.00
2019-05-25T07:46:01.370Z,8.83
2019-05-25T07:48:33.173Z,6.13
2019-05-25T07:51:04.932Z,9.07
2019-05-25T07:53:37.528Z,9.47
2019-05-25T07:56:09.370Z,11.43
2019-05-25T07:58:41.062Z,6.37
2019-05-25T08:01:13.168Z,8.23
2019-05-25T08:03:47.079Z,11.37
2019-05-25T08:06:18.803Z,7.47
2019-05-25T08:08:51.786Z,7.63
2019-05-25T08:11:23.538Z,6.47
2019-05-25T08:13:55.368Z,7.43
2019-05-25T08:16:27.114Z,12.53
2019-05-25T08:18:58.847Z,8.43
2019-05-25T08:21:30.609Z,6.00
2019-05-25T08:24:02.338Z,7.03
2019-05-25T08:26:34.082Z,11.27
2019-05-25T08:29:05.923Z,9.43
2019-05-25T08:31:37.677Z,8.57
2019-05-25T08:34:09.428Z,8.00
2019-05-25T08:36:44.919Z,10.97
2019-05-25T08:39:16.847Z,9.33
2019-05-25T08:41:51.016Z,12.40
2019-05-25T08:44:22.843Z,17.17
2019-05-25T08:46:55.744Z,11.97
2019-05-25T08:49:27.668Z,16.13
2019-05-25T08:51:59.738Z,17.00
2019-05-25T08:54:31.480Z,16.73
2019-05-25T08:57:04.896Z,12.53
2019-05-25T08:59:36.530Z,11.70
2019-05-25T09:02:08.269Z,14.03
2019-05-25T09:04:40.016Z,12.73
2019-05-25T09:07:11.749Z,16.77
2019-05-25T09:09:43.624Z,14.97
2019-05-25T09:12:15.389Z,12.93
2019-05-25T09:14:48.812Z,12.73
2019-05-25T09:17:20.678Z,10.63
2019-05-25T09:19:52.428Z,13.40
2019-05-25T09:22:24.176Z,10.93
2019-05-25T09:24:55.915Z,11.17
2019-05-25T09:27:27.698Z,10.33
2019-05-25T09:30:01.127Z,6.70
2019-05-25T09:32:32.783Z,6.43
2019-05-25T09:35:07.167Z,4.00
2019-05-25T09:37:39.013Z,4.47
2019-05-25T09:40:11.561Z,8.93
2019-05-25T09:42:44.628Z,6.43
2019-05-25T09:45:16.872Z,8.27
2019-05-25T09:47:48.508Z,5.00
2019-05-25T09:50:20.308Z,6.30
2019-05-25T09:52:52.036Z,7.90
2019-05-25T09:55:23.767Z,6.57
2019-05-25T09:57:55.494Z,8.37
2019-05-25T10:00:27.776Z,7.27
2019-05-25T10:02:59.416Z,6.67
2019-05-25T10:05:31.164Z,8.10
2019-05-25T10:08:04.185Z,6.10
2019-05-25T10:10:36.074Z,6.70
2019-05-25T10:13:07.898Z,9.47
2019-05-25T10:15:40.938Z,13.93
2019-05-25T10:18:12.673Z,11.83
2019-05-25T10:20:45.534Z,7.27
2019-05-25T10:23:17.259Z,8.37
2019-05-25T10:25:48.885Z,7.67
2019-05-25T10:28:20.916Z,5.57
2019-05-25T10:30:52.792Z,5.47
2019-05-25T10:33:25.998Z,8.17
2019-05-25T10:35:57.724Z,5.53
2019-05-25T10:38:29.558Z,7.73
2019-05-25T10:41:01.285Z,5.80
2019-05-25T10:43:36.945Z,5.43
2019-05-25T10:46:08.780Z,4.50
2019-05-25T10:48:40.538Z,4.77
2019-05-25T10:51:12.342Z,4.47
2019-05-25T10:53:44.415Z,3.50
2019-05-25T10:56:16.144Z,7.43
2019-05-25T10:58:48.086Z,2.80
2019-05-25T11:01:19.621Z,3.17
2019-05-25T11:03:52.954Z,3.10
2019-05-25T11:06:24.697Z,5.33
2019-05-25T11:08:56.238Z,3.87
2019-05-25T11:11:27.861Z,6.67
2019-05-25T11:13:59.391Z,4.57
2019-05-25T11:16:32.393Z,4.60
2019-05-25T11:19:04.123Z,5.17
2019-05-25T11:21:35.850Z,5.40
2019-05-25T11:24:07.585Z,5.17
2019-05-25T11:26:40.803Z,7.40
2019-05-25T11:29:13.877Z,3.13
2019-05-25T11:31:54.631Z,2.53
2019-05-25T11:34:18.643Z,6.27
2019-05-25T11:36:50.382Z,4.30
2019-05-25T11:39:22.511Z,4.37
2019-05-25T11:41:54.034Z,7.17
2019-05-25T11:44:26.966Z,5.77
2019-05-25T11:46:59.618Z,3.27
2019-05-25T11:49:31.364Z,4.07
2019-05-25T11:52:03.099Z,8.83
2019-05-25T11:54:34.829Z,7.87
2019-05-25T11:57:07.430Z,8.80
2019-05-25T11:59:39.359Z,3.93
2019-05-25T12:02:11.087Z,3.53
2019-05-25T12:04:43.631Z,4.13
2019-05-25T12:07:15.466Z,7.37
2019-05-25T12:09:47.290Z,4.20
2019-05-25T12:12:19.025Z,6.00
2019-05-25T12:14:50.767Z,5.77
2019-05-25T12:17:22.633Z,4.60
2019-05-25T12:19:54.273Z,5.43
2019-05-25T12:22:26.131Z,3.07
2019-05-25T12:24:57.650Z,4.17
2019-05-25T12:27:29.278Z,3.83
2019-05-25T12:30:02.695Z,5.53
2019-05-25T12:32:34.605Z,5.17
2019-05-25T12:35:08.420Z,7.47
2019-05-25T12:37:40.247Z,5.67
2019-05-25T12:40:12.645Z,2.60
2019-05-25T12:42:45.902Z,4.03
2019-05-25T12:45:18.380Z,4.87
2019-05-25T12:47:49.943Z,4.43
2019-05-25T12:50:22.609Z,3.97
2019-05-25T12:52:54.150Z,4.33
2019-05-25T12:55:26.033Z,2.57
2019-05-25T12:57:57.751Z,3.10
2019-05-25T13:00:29.488Z,2.73
2019-05-25T13:03:01.249Z,2.97
2019-05-25T13:05:34.738Z,3.60
2019-05-25T13:08:08.157Z,8.43
2019-05-25T13:10:39.903Z,4.33
2019-05-25T13:13:11.664Z,44.53
2019-05-25T13:15:43.433Z,6.07
2019-05-25T13:18:15.161Z,3.60
2019-05-25T13:20:47.032Z,29.00
2019-05-25T13:23:18.787Z,16.07
2019-05-25T13:25:50.529Z,4.10
2019-05-25T13:28:22.257Z,5.40
2019-05-25T13:30:53.998Z,11.93
2019-05-25T13:33:26.867Z,4.37
2019-05-25T13:35:58.715Z,5.53
2019-05-25T13:38:30.447Z,10.13
2019-05-25T13:41:02.302Z,5.47
2019-05-25T13:43:34.048Z,5.73
2019-05-25T13:46:06.666Z,3.73
2019-05-25T13:48:38.410Z,5.53
2019-05-25T13:51:10.284Z,4.70
2019-05-25T13:53:41.908Z,3.03
2019-05-25T13:56:13.760Z,2.20
2019-05-25T13:58:45.480Z,9.87
2019-05-25T14:01:27.919Z,7.87
2019-05-25T14:03:50.571Z,4.10
2019-05-25T14:06:22.329Z,3.27
2019-05-25T14:08:54.071Z,4.17
2019-05-25T14:11:25.805Z,5.97
2019-05-25T14:13:57.543Z,3.57
2019-05-25T14:16:29.292Z,6.97
2019-05-25T14:19:01.121Z,16.93
2019-05-25T14:21:34.513Z,14.43
2019-05-25T14:24:06.537Z,7.57
2019-05-25T14:26:38.478Z,6.63
2019-05-25T14:29:10.303Z,7.73
2019-05-25T14:31:45.852Z,8.17
2019-05-25T14:34:15.591Z,2.93
2019-05-25T14:36:47.449Z,6.30
2019-05-25T14:39:20.498Z,3.97
2019-05-25T14:41:54.060Z,3.40
2019-05-25T14:44:25.687Z,2.47
2019-05-25T14:46:58.397Z,1.40
2019-05-25T14:49:30.138Z,6.47
2019-05-25T14:52:02.014Z,2.93
2019-05-25T14:54:33.683Z,2.47
2019-05-25T14:57:05.909Z,4.40
2019-05-25T14:59:37.765Z,4.13
2019-05-25T15:02:10.471Z,3.60
2019-05-25T15:04:42.308Z,4.23
2019-05-25T15:07:14.089Z,9.00
2019-05-25T15:09:45.782Z,3.73
2019-05-25T15:12:17.595Z,2.53
2019-05-25T15:14:49.612Z,3.63
2019-05-25T15:17:21.348Z,2.10
2019-05-25T15:19:53.239Z,7.33
2019-05-25T15:22:25.987Z,64.27
2019-05-25T15:24:57.845Z,20.37
2019-05-25T15:27:31.075Z,3.13
2019-05-25T15:30:03.211Z,6.60
2019-05-25T15:32:34.937Z,5.43
2019-05-25T15:35:08.134Z,3.57
2019-05-25T15:37:39.758Z,4.13
2019-05-25T15:40:13.062Z,6.13
2019-05-25T15:42:45.102Z,2.77
2019-05-25T15:45:20.695Z,7.83
2019-05-25T15:47:53.681Z,10.17
2019-05-25T15:50:25.938Z,7.47
2019-05-25T15:52:57.481Z,7.37
2019-05-25T15:55:29.905Z,5.10
2019-05-25T15:58:01.778Z,5.33
2019-05-25T16:00:51.830Z,5.83
2019-05-25T16:03:23.826Z,5.00
2019-05-25T16:05:55.868Z,4.00
2019-05-25T16:08:27.566Z,5.27
2019-05-25T16:10:59.364Z,6.07
2019-05-25T16:13:31.118Z,4.20
2019-05-25T16:16:02.896Z,2.27
2019-05-25T16:18:34.628Z,8.30
2019-05-25T16:21:06.492Z,5.83
2019-05-25T16:23:38.126Z,9.07
2019-05-25T16:26:09.888Z,3.97
2019-05-25T16:28:41.625Z,5.57
2019-05-25T16:31:13.370Z,3.87
2019-05-25T16:33:45.128Z,7.47
2019-05-25T16:36:16.897Z,7.03
2019-05-25T16:38:48.689Z,5.77
2019-05-25T16:41:20.415Z,8.47
2019-05-25T16:43:52.190Z,3.77
2019-05-25T16:46:24.003Z,8.73
2019-05-25T16:48:56.631Z,16.17
2019-05-25T16:51:28.429Z,22.13
2019-05-25T16:54:00.200Z,8.50
2019-05-25T16:56:32.091Z,12.13
2019-05-25T16:59:03.987Z,8.10
2019-05-25T17:01:47.553Z,15.70
2019-05-25T17:04:09.326Z,12.63
2019-05-25T17:06:41.095Z,18.97
2019-05-25T17:09:12.897Z,20.70
2019-05-25T17:11:44.652Z,12.27
2019-05-25T17:14:16.576Z,11.10
2019-05-25T17:16:48.501Z,19.33
2019-05-25T17:19:20.527Z,3.10
2019-05-25T17:21:52.686Z,8.60
2019-05-25T17:24:24.513Z,5.33
2019-05-25T17:26:56.378Z,5.37
2019-05-25T17:29:29.156Z,9.27
2019-05-25T17:32:00.810Z,12.03
2019-05-25T17:34:32.759Z,21.00
2019-05-25T17:37:05.120Z,15.70
2019-05-25T17:39:37.108Z,6.50
2019-05-25T17:42:10.677Z,13.03
2019-05-25T17:44:42.492Z,6.53
2019-05-25T17:47:14.180Z,5.00
2019-05-25T17:49:46.826Z,4.10
2019-05-25T17:52:22.582Z,6.30
2019-05-25T17:54:53.721Z,6.80
2019-05-25T17:57:25.555Z,10.50
2019-05-25T17:59:59.461Z,5.13
2019-05-25T18:02:30.566Z,6.80
2019-05-25T18:05:02.359Z,6.33
2019-05-25T18:07:35.141Z,9.47
2019-05-25T18:10:08.803Z,13.37
2019-05-25T18:12:40.431Z,9.10
2019-05-25T18:15:14.878Z,10.70
2019-05-25T18:18:11.399Z,18.67
2019-05-25T18:20:44.038Z,7.60
2019-05-25T18:23:20.877Z,9.37
2019-05-25T18:25:58.034Z,12.77
2019-05-25T18:28:30.562Z,17.43
2019-05-25T18:31:02.309Z,14.63
2019-05-25T18:33:34.036Z,24.87
2019-05-25T18:36:05.827Z,11.20
2019-05-25T18:38:39.823Z,18.67
2019-05-25T18:41:13.538Z,14.70
2019-05-25T18:43:47.329Z,13.23
2019-05-25T18:46:21.179Z,21.37
2019-05-25T18:48:54.185Z,19.73
2019-05-25T18:51:25.860Z,20.30
2019-05-25T18:53:57.645Z,25.57
2019-05-25T18:56:29.406Z,19.37
2019-05-25T18:59:10.500Z,19.50
2019-05-25T19:01:44.820Z,31.30
2019-05-25T19:04:19.925Z,19.83
2019-05-25T19:06:55.019Z,12.57
2019-05-25T19:09:28.253Z,20.17
2019-05-25T19:11:59.950Z,16.10
2019-05-25T19:14:34.648Z,27.53
2019-05-25T19:17:19.362Z,18.87
2019-05-25T19:19:49.732Z,13.67
2019-05-25T19:22:26.480Z,10.87
2019-05-25T19:24:59.506Z,19.10
2019-05-25T19:27:36.970Z,16.83
2019-05-25T19:30:18.433Z,19.23
2019-05-25T19:32:50.771Z,13.07
2019-05-25T19:35:22.639Z,18.83
2019-05-25T19:37:55.463Z,9.23
2019-05-25T19:40:27.444Z,19.47
2019-05-25T19:42:59.551Z,29.33
2019-05-25T19:45:35.331Z,37.73
2019-05-25T19:48:07.423Z,39.30
2019-05-25T19:50:39.268Z,23.37
2019-05-25T19:53:17.189Z,21.93
2019-05-25T19:55:49.205Z,24.63
2019-05-25T19:58:25.256Z,40.63
2019-05-25T20:01:01.004Z,62.73
2019-05-25T20:03:35.468Z,55.53
2019-05-25T20:06:09.492Z,23.77
2019-05-25T20:08:44.561Z,23.60
2019-05-25T20:11:18.017Z,28.17
2019-05-25T20:13:49.858Z,14.53
2019-05-25T20:16:24.848Z,11.00
2019-05-25T20:18:57.606Z,12.47
2019-05-25T20:21:31.581Z,13.93
2019-05-25T20:24:06.818Z,17.20
2019-05-25T20:26:40.251Z,12.73
2019-05-25T20:29:15.316Z,24.03
2019-05-25T20:31:47.070Z,13.53
2019-05-25T20:34:20.551Z,20.13
2019-05-25T20:36:52.811Z,11.13
2019-05-25T20:39:29.014Z,18.00
2019-05-25T20:42:00.600Z,19.20
2019-05-25T20:44:36.012Z,11.83
2019-05-25T20:47:07.790Z,19.50
2019-05-25T20:49:41.591Z,10.70
2019-05-25T20:52:25.869Z,16.20
2019-05-25T20:54:59.821Z,17.03
2019-05-25T20:57:35.348Z,24.27
2019-05-25T21:00:07.802Z,20.70
2019-05-25T21:03:04.743Z,20.97
2019-05-25T21:05:25.170Z,16.13
2019-05-25T21:07:59.814Z,20.20
2019-05-25T21:10:35.772Z,18.70
2019-05-25T21:13:10.685Z,18.37
2019-05-25T21:15:52.194Z,24.20
2019-05-25T21:18:34.225Z,17.73
2019-05-25T21:21:06.020Z,17.77
2019-05-25T21:23:42.601Z,17.90
2019-05-25T21:26:18.957Z,23.00
2019-05-25T21:28:50.766Z,17.50
2019-05-25T21:31:27.369Z,21.57
2019-05-25T21:34:04.683Z,15.30
2019-05-25T21:36:48.337Z,18.80
2019-05-25T21:39:26.556Z,14.33
2019-05-25T21:42:00.599Z,17.57
2019-05-25T21:44:36.980Z,14.77
2019-05-25T21:47:08.545Z,16.23
2019-05-25T21:49:41.525Z,17.83
2019-05-25T21:52:14.888Z,14.30
2019-05-25T21:54:46.721Z,15.37
2019-05-25T21:57:19.027Z,14.00
2019-05-25T21:59:50.696Z,15.00
2019-05-25T22:02:22.445Z,13.73
2019-05-25T22:04:54.194Z,28.27
2019-05-25T22:07:26.627Z,32.90
2019-05-25T22:09:58.296Z,34.37
2019-05-25T22:12:30.083Z,37.37
2019-05-25T22:15:01.838Z,30.63
2019-05-25T22:17:34.166Z,18.67
2019-05-25T22:20:11.088Z,13.70
2019-05-25T22:22:43.484Z,14.07
2019-05-25T22:25:16.136Z,15.43
2019-05-25T22:27:47.982Z,15.07
2019-05-25T22:30:22.655Z,23.90
2019-05-25T22:32:54.617Z,22.73
2019-05-25T22:35:26.657Z,23.20
2019-05-25T22:37:58.419Z,20.37
2019-05-25T22:40:30.178Z,26.10
2019-05-25T22:43:01.920Z,25.73
2019-05-25T22:45:33.683Z,19.57
2019-05-25T22:48:05.522Z,21.53
2019-05-25T22:50:37.183Z,21.63
2019-05-25T22:53:08.938Z,21.63
2019-05-25T22:55:40.721Z,29.00
2019-05-25T22:58:12.470Z,27.60
2019-05-25T23:00:44.249Z,30.50
2019-05-25T23:03:16.367Z,24.67
2019-05-25T23:05:48.336Z,21.03
2019-05-25T23:08:20.085Z,23.97
2019-05-25T23:10:51.849Z,17.20
2019-05-25T23:13:23.608Z,22.20
2019-05-25T23:15:55.373Z,26.13
2019-05-25T23:18:28.700Z,27.83
2019-05-25T23:21:00.455Z,23.13
2019-05-25T23:23:32.508Z,26.33
2019-05-25T23:26:04.269Z,23.23
2019-05-25T23:28:37.296Z,22.37
2019-05-25T23:31:09.048Z,23.90
2019-05-25T23:33:41.100Z,23.23
2019-05-25T23:36:12.847Z,22.40
2019-05-25T23:38:45.778Z,18.43
2019-05-25T23:41:17.583Z,20.90
2019-05-25T23:43:49.339Z,23.20
2019-05-25T23:46:22.420Z,23.10
2019-05-25T23:48:54.084Z,19.23
2019-05-25T23:51:27.103Z,24.47
2019-05-25T23:53:58.847Z,20.13
2019-05-25T23:56:30.593Z,18.23
2019-05-25T23:59:02.336Z,17.97
